| Date | Temp | Humidity | Rainfall | Dew Point | Wind Direction | Wind Speed | Wind Pressure | Condition | Visibility |
|---|---|---|---|---|---|---|---|---|---|
| 2025-04-17 14:00:54 | 32 | 69 | 26 | 330 | 13.3 | 1008 | Distant showers | 15 KM | |
| 2025-04-17 11:58:56 | 31 | 73 | 25 | 320 | 15.2 | 1011 | Distant showers | 15 KM | |
| 2025-04-17 11:01:49 | 31 | 24 | 24 | 250 | 5.7 | 1011 | Partly Cloudy (Day) | 20 KM | |
| 2025-04-17 10:00:04 | 30 | 73 | 24 | 220 | 9.5 | 1012 | Partly Cloudy (Day) | 20 km | |
| 2025-04-17 08:58:36 | 28 | 80 | 24 | 220 | 5.7 | 1012 | Partly Cloudy (Day) | 15 km | |
| 2025-04-17 08:02:19 | 26 | 89 | 0.0 | 24 | 210 | 210 | 1011 | Cloudy | 15KM |
| 2025-04-17 07:01:14 | 25 | 92 | 0.0 | 24 | 220 | 9.5 | 1011 | Cloudy | 10KM |
| 2025-04-17 05:59:40 | 25 | 92 | 0.0 | 24 | 240 | 5.7 | 1010 | Cloudy | 10KM |
| 2025-04-17 05:02:06 | 25 | 92 | 0.0 | 24 | 220 | 7.6 | 1010 | Cloudy | 10KM |
| 2025-04-17 04:00:38 | 26 | 92 | 0.0 | 24 | 210 | 5.7 | 1010 | Cloudy | 92 |
| 2025-04-17 03:00:17 | 26 | 92 | 0.0 | 24 | 200 | 7.6 | 1010 | Partly Cloudy (Night) | 10KM |
| 2025-04-17 01:58:48 | 25 | 92 | 0 | 24 | 150 | 3.8 | 1010 | Night Shower | 10 KM |
| 2025-04-17 00:59:33 | 26 | 92 | 0 | 24 | 220 | 9.5 | 1011 | Night Shower | 8 KM |
| 2025-04-16 23:58:14 | 27 | 89 | 0 | 25 | 160 | 5.7 | 1011 | Thundershowers | 10 KM |
| 2025-04-16 23:00:35 | 27 | 88 | 0 | 88 | 160 | 1.9 | 1011 | Night Thunderstorm | 10 KM |
| 2025-04-16 21:59:20 | 28 | 84 | 0 | 25 | 130 | 1.9 | 1011 | Partly Cloudy (Day) | 10 KM |
| 2025-04-16 20:59:08 | 29 | 79 | 0.00 | 25 | 050 | 5.7 | 1011 | Partly Cloudy (Night) | 10KM |
| 2025-04-16 20:02:40 | 29 | 78 | 0.00 | 25 | 360 | 11.4 | 1010 | Partly Cloudy (Night) | 10KM |
| 2025-04-16 19:12:24 | 29 | 78 | 0.00 | 25 | 360 | 11.4 | 1008 | Partly Cloudy (Night) | 10KM |
| 2025-04-16 17:59:30 | 30 | 76 | 0.00 | 25 | 320 | 13.3 | 1009 | Partly Cloudy (Day) | 10KM |
| 2025-04-16 16:00:47 | 31 | 69 | 25 | 340 | 17.1 | 1008 | Cloudy | 20 KM | |
| 2025-04-16 14:59:57 | 31 | 69 | 310 | 17. | Cloudy | ||||
| 2025-04-16 13:58:05 | 32 | 67 | 25 | 320 | 19.0 | 1008 | Cloudy | 20 KM | |
| 2025-04-16 12:58:59 | 32 | 64 | 25 | 340 | 13.3 | 1009 | Partly Cloudy (Day) | 20KM | |
| 2025-04-16 12:03:34 | 32 | 66 | 24 | 330 | 9.5 | 1010 | Partly Cloudy (Day) | 20KM |